createdAt,value
2022-10-22T00:00:08.920Z,99810.72
2022-10-22T00:01:09.968Z,99813.88
2022-10-22T00:01:49.925Z,99809.63
2022-10-22T00:02:30.066Z,99805.94
2022-10-22T00:03:10.937Z,99810.34
2022-10-22T00:03:57.981Z,99811.69
2022-10-22T00:04:54.439Z,99818.47
2022-10-22T00:05:48.925Z,99811.00
2022-10-22T00:06:42.920Z,99824.34
2022-10-22T00:07:37.119Z,99813.66
2022-10-22T00:08:32.011Z,99827.28
2022-10-22T00:09:20.988Z,99834.00
2022-10-22T00:09:55.058Z,99814.31
2022-10-22T00:10:44.953Z,99828.97
2022-10-22T00:11:24.986Z,99836.34
2022-10-22T00:12:12.949Z,99807.91
2022-10-22T00:12:46.964Z,99810.16
2022-10-22T00:13:33.938Z,99814.09
2022-10-22T00:14:07.999Z,99786.88
2022-10-22T00:14:49.916Z,99794.06
2022-10-22T00:15:43.913Z,99785.59
2022-10-22T00:16:37.922Z,99789.66
2022-10-22T00:17:31.930Z,99782.50
2022-10-22T00:18:25.896Z,99795.09
2022-10-22T00:19:19.909Z,99804.91
2022-10-22T00:20:06.925Z,99783.56
2022-10-22T00:20:41.018Z,99811.97
2022-10-22T00:21:27.872Z,99801.03
2022-10-22T00:22:05.609Z,99808.16
2022-10-22T00:22:52.940Z,99799.59
2022-10-22T00:23:26.972Z,99791.00
2022-10-22T00:24:13.884Z,99798.34
2022-10-22T00:24:47.947Z,99777.84
2022-10-22T00:25:29.027Z,99801.28
2022-10-22T00:26:08.948Z,99792.25
2022-10-22T00:26:49.861Z,99791.41
2022-10-22T00:27:29.962Z,99788.69
2022-10-22T00:28:10.873Z,99788.38
2022-10-22T00:28:50.994Z,99790.84
2022-10-22T00:29:31.909Z,99794.41
2022-10-22T00:30:13.019Z,99798.41
2022-10-22T00:30:53.921Z,99804.56
2022-10-22T00:31:34.125Z,99793.78
2022-10-22T00:32:14.878Z,99792.78
2022-10-22T00:32:54.962Z,99802.97
2022-10-22T00:33:36.900Z,99793.41
2022-10-22T00:34:18.020Z,99805.31
2022-10-22T00:34:57.895Z,99789.66
2022-10-22T00:35:37.990Z,99806.72
2022-10-22T00:36:18.936Z,99791.75
2022-10-22T00:36:59.936Z,99805.00
2022-10-22T00:37:40.892Z,99810.44
2022-10-22T00:38:21.984Z,99802.38
2022-10-22T00:39:03.116Z,99805.31
2022-10-22T00:39:43.164Z,99817.31
2022-10-22T00:40:22.893Z,99809.34
2022-10-22T00:41:05.027Z,99781.25
2022-10-22T00:41:46.003Z,99810.88
2022-10-22T00:42:37.838Z,99815.47
2022-10-22T00:43:20.877Z,99798.13
2022-10-22T00:44:08.126Z,99802.53
2022-10-22T00:45:18.855Z,99790.00
2022-10-22T00:45:58.973Z,99797.13
2022-10-22T00:46:39.864Z,99803.09
2022-10-22T00:47:22.136Z,99798.53
2022-10-22T00:48:11.022Z,99796.50
2022-10-22T00:48:58.875Z,99788.31
2022-10-22T00:49:32.958Z,99770.59
2022-10-22T00:50:25.873Z,99790.91
2022-10-22T00:51:10.943Z,99799.44
2022-10-22T00:51:57.880Z,99791.00
2022-10-22T00:52:40.191Z,99778.38
2022-10-22T00:53:50.858Z,99794.88
2022-10-22T00:54:44.870Z,99795.25
2022-10-22T00:55:40.885Z,99787.19
2022-10-22T00:56:36.894Z,99783.03
2022-10-22T00:57:31.889Z,99777.22
2022-10-22T00:58:12.915Z,99779.31
2022-10-22T00:59:01.052Z,99783.03
2022-10-22T00:59:41.835Z,99766.88
2022-10-22T01:00:22.922Z,99779.00
2022-10-22T01:01:03.954Z,99781.94
2022-10-22T01:01:45.224Z,99776.97
2022-10-22T01:02:25.880Z,99762.06
2022-10-22T01:03:07.975Z,99761.91
2022-10-22T01:03:47.899Z,99780.09
2022-10-22T01:04:27.924Z,99774.28
2022-10-22T01:05:08.844Z,99776.97
2022-10-22T01:06:10.933Z,99764.69
2022-10-22T01:06:50.849Z,99774.91
2022-10-22T01:07:31.978Z,99766.94
2022-10-22T01:08:13.850Z,99770.94
2022-10-22T01:09:19.890Z,99766.31
2022-10-22T01:10:35.869Z,99760.81
2022-10-22T01:11:40.912Z,99767.47
2022-10-22T01:12:56.861Z,99761.28
2022-10-22T01:14:32.959Z,99756.44
2022-10-22T01:15:45.864Z,99750.44
2022-10-22T01:17:13.904Z,99767.63
2022-10-22T01:18:50.008Z,99744.88
2022-10-22T01:20:10.851Z,99753.31
2022-10-22T01:21:44.878Z,99743.00
2022-10-22T01:22:45.870Z,99745.81
2022-10-22T01:24:16.816Z,99752.25
2022-10-22T01:25:49.924Z,99751.75
2022-10-22T01:27:17.905Z,99748.13
2022-10-22T01:28:46.880Z,99741.88
2022-10-22T01:29:53.024Z,99728.75
2022-10-22T01:30:47.821Z,99722.66
2022-10-22T01:31:28.841Z,99731.47
2022-10-22T01:32:17.885Z,99716.91
2022-10-22T01:33:08.817Z,99728.97
2022-10-22T01:33:50.885Z,99727.97
2022-10-22T01:34:32.822Z,99726.59
2022-10-22T01:35:19.934Z,99720.63
2022-10-22T01:36:00.861Z,99715.91
2022-10-22T01:36:42.907Z,99699.03
2022-10-22T01:37:24.832Z,99716.91
2022-10-22T01:38:08.861Z,99712.34
2022-10-22T01:38:49.792Z,99702.91
2022-10-22T01:39:30.934Z,99708.66
2022-10-22T01:40:12.830Z,99715.66
2022-10-22T01:40:53.908Z,99699.66
2022-10-22T01:41:35.832Z,99704.53
2022-10-22T01:42:15.962Z,99684.03
2022-10-22T01:43:22.837Z,99699.28
2022-10-22T01:44:02.885Z,99702.34
2022-10-22T01:44:43.803Z,99700.19
2022-10-22T01:45:23.890Z,99711.19
2022-10-22T01:46:08.783Z,99706.06
2022-10-22T01:46:55.849Z,99702.78
2022-10-22T01:47:57.825Z,99715.75
2022-10-22T01:49:36.805Z,99722.78
2022-10-22T01:50:45.812Z,99717.97
2022-10-22T01:52:36.824Z,99722.19
2022-10-22T01:54:12.812Z,99726.03
2022-10-22T01:55:30.790Z,99733.03
2022-10-22T01:57:05.801Z,99739.69
2022-10-22T01:58:09.811Z,99722.22
2022-10-22T01:59:20.836Z,99749.00
2022-10-22T02:00:17.793Z,99758.41
2022-10-22T02:01:00.934Z,99761.69
2022-10-22T02:01:48.789Z,99767.84
2022-10-22T02:03:02.848Z,99768.44
2022-10-22T02:03:54.833Z,99773.63
2022-10-22T02:05:10.927Z,99766.38
2022-10-22T02:06:00.773Z,99759.69
2022-10-22T02:06:41.860Z,99747.03
2022-10-22T02:07:27.794Z,99741.75
2022-10-22T02:08:21.858Z,99734.97
2022-10-22T02:09:02.926Z,99748.00
2022-10-22T02:09:43.912Z,99746.16
2022-10-22T02:10:24.788Z,99749.03
2022-10-22T02:11:05.867Z,99731.66
2022-10-22T02:11:47.772Z,99755.34
2022-10-22T02:12:28.872Z,99759.63
2022-10-22T02:13:09.781Z,99754.22
2022-10-22T02:14:07.843Z,99748.00
2022-10-22T02:15:02.807Z,99754.28
2022-10-22T02:15:58.779Z,99739.50
2022-10-22T02:16:57.766Z,99754.28
2022-10-22T02:17:52.779Z,99744.47
2022-10-22T02:18:48.781Z,99749.88
2022-10-22T02:19:34.836Z,99747.50
2022-10-22T02:20:38.872Z,99748.03
2022-10-22T02:21:19.777Z,99739.53
2022-10-22T02:22:00.841Z,99752.59
2022-10-22T02:22:43.858Z,99729.84
2022-10-22T02:23:23.838Z,99738.97
2022-10-22T02:24:04.764Z,99738.66
2022-10-22T02:24:51.796Z,99742.09
2022-10-22T02:25:52.787Z,99714.50
2022-10-22T02:26:53.773Z,99702.84
2022-10-22T02:28:05.803Z,99680.13
2022-10-22T02:29:26.788Z,99728.25
2022-10-22T02:30:24.846Z,99716.41
2022-10-22T02:31:03.840Z,99726.91
2022-10-22T02:31:52.761Z,99728.66
2022-10-22T02:32:29.873Z,99724.84
2022-10-22T02:33:25.762Z,99728.66
2022-10-22T02:34:04.914Z,99714.72
2022-10-22T02:34:52.796Z,99742.34
2022-10-22T02:35:36.804Z,99744.63
2022-10-22T02:36:31.785Z,99734.66
2022-10-22T02:37:25.745Z,99745.47
2022-10-22T02:38:20.737Z,99748.63
2022-10-22T02:40:10.770Z,99746.31
2022-10-22T02:40:57.793Z,99743.47
2022-10-22T02:41:31.868Z,99714.22
2022-10-22T02:42:19.762Z,99733.25
2022-10-22T02:42:55.909Z,99720.44
2022-10-22T02:43:55.737Z,99727.56
2022-10-22T02:44:29.877Z,99728.38
2022-10-22T02:45:17.769Z,99723.66
2022-10-22T02:45:52.872Z,99725.13
2022-10-22T02:46:33.795Z,99711.88
2022-10-22T02:47:13.845Z,99700.78
2022-10-22T02:47:54.740Z,99723.25
2022-10-22T02:48:34.863Z,99713.28
2022-10-22T02:49:14.741Z,99729.63
2022-10-22T02:49:56.834Z,99699.81
2022-10-22T02:50:36.751Z,99725.75
2022-10-22T02:51:16.833Z,99722.88
2022-10-22T02:51:57.775Z,99722.34
2022-10-22T02:52:38.302Z,99731.00
2022-10-22T02:53:18.752Z,99715.88
2022-10-22T02:53:58.912Z,99724.91
2022-10-22T02:54:38.732Z,99729.22
2022-10-22T02:55:18.841Z,99726.06
2022-10-22T02:55:58.733Z,99718.41
2022-10-22T02:56:38.803Z,99734.88
2022-10-22T02:58:04.813Z,99712.84
2022-10-22T02:58:44.744Z,99712.16
2022-10-22T02:59:24.865Z,99722.97
2022-10-22T03:00:04.762Z,99723.50
2022-10-22T03:00:44.863Z,99727.38
2022-10-22T03:01:24.749Z,99704.59
2022-10-22T03:02:04.851Z,99725.81
2022-10-22T03:02:45.752Z,99714.97
2022-10-22T03:03:25.892Z,99724.63
2022-10-22T03:04:05.714Z,99717.28
2022-10-22T03:04:45.873Z,99714.97
2022-10-22T03:05:25.737Z,99725.06
2022-10-22T03:06:05.813Z,99728.00
2022-10-22T03:06:49.737Z,99736.28
2022-10-22T03:07:29.785Z,99737.38
2022-10-22T03:08:10.744Z,99728.84
2022-10-22T03:08:50.834Z,99729.47
2022-10-22T03:09:30.723Z,99733.03
2022-10-22T03:10:11.863Z,99724.84
2022-10-22T03:10:52.734Z,99722.13
2022-10-22T03:11:32.809Z,99732.50
2022-10-22T03:12:14.740Z,99721.81
2022-10-22T03:12:54.907Z,99727.31
2022-10-22T03:13:35.768Z,99715.09
2022-10-22T03:14:18.846Z,99725.63
2022-10-22T03:14:58.742Z,99717.50
2022-10-22T03:15:38.778Z,99722.59
2022-10-22T03:16:18.740Z,99737.69
2022-10-22T03:16:58.790Z,99738.69
2022-10-22T03:17:39.004Z,99748.38
2022-10-22T03:18:19.819Z,99723.91
2022-10-22T03:19:00.758Z,99751.16
2022-10-22T03:19:42.034Z,99746.44
2022-10-22T03:20:21.727Z,99741.50
2022-10-22T03:21:36.787Z,99754.94
2022-10-22T03:22:22.762Z,99760.34
2022-10-22T03:23:03.795Z,99741.25
2022-10-22T03:23:44.704Z,99754.78
2022-10-22T03:24:30.780Z,99760.59
2022-10-22T03:25:08.012Z,99760.44
2022-10-22T03:25:55.789Z,99743.88
2022-10-22T03:26:30.839Z,99759.44
2022-10-22T03:27:19.721Z,99760.28
2022-10-22T03:27:53.796Z,99742.72
2022-10-22T03:28:42.742Z,99767.22
2022-10-22T03:29:17.755Z,99748.81
2022-10-22T03:29:59.730Z,99766.25
2022-10-22T03:30:39.784Z,99767.72
2022-10-22T03:31:19.704Z,99753.78
2022-10-22T03:32:00.800Z,99760.09
2022-10-22T03:32:40.741Z,99751.53
2022-10-22T03:33:20.807Z,99768.34
2022-10-22T03:34:00.697Z,99762.19
2022-10-22T03:34:43.791Z,99756.09
2022-10-22T03:35:23.809Z,99768.16
2022-10-22T03:36:03.780Z,99766.06
2022-10-22T03:36:44.707Z,99762.28
2022-10-22T03:37:25.804Z,99761.81
2022-10-22T03:38:07.731Z,99763.53
2022-10-22T03:38:47.765Z,99765.69
2022-10-22T03:39:29.733Z,99767.22
2022-10-22T03:40:11.809Z,99755.31
2022-10-22T03:40:52.722Z,99768.44
2022-10-22T03:41:33.770Z,99747.72
2022-10-22T03:42:14.713Z,99744.81
2022-10-22T03:42:54.756Z,99753.28
2022-10-22T03:43:34.721Z,99760.25
2022-10-22T03:44:14.789Z,99751.19
2022-10-22T03:44:54.742Z,99757.56
2022-10-22T03:45:48.692Z,99747.19
2022-10-22T03:46:28.720Z,99761.81
2022-10-22T03:47:08.821Z,99747.56
2022-10-22T03:47:48.710Z,99744.31
2022-10-22T03:48:28.780Z,99748.19
2022-10-22T03:49:09.689Z,99740.69
2022-10-22T03:49:49.761Z,99748.81
2022-10-22T03:50:29.692Z,99754.16
2022-10-22T03:51:10.427Z,99757.56
2022-10-22T03:51:50.781Z,99747.19
2022-10-22T03:52:30.753Z,99745.56
2022-10-22T03:53:11.714Z,99737.94
2022-10-22T03:53:51.770Z,99728.56
2022-10-22T03:54:31.726Z,99748.81
2022-10-22T03:55:13.784Z,99759.72
2022-10-22T03:55:53.691Z,99770.41
2022-10-22T03:56:33.766Z,99746.13
2022-10-22T03:57:14.759Z,99753.94
2022-10-22T03:57:54.797Z,99757.34
2022-10-22T03:59:15.687Z,99738.44
2022-10-22T03:59:58.847Z,99745.56
2022-10-22T04:00:43.649Z,99748.66
2022-10-22T04:01:27.085Z,99746.66
2022-10-22T04:02:09.963Z,99759.81
2022-10-22T04:02:52.086Z,99748.53
2022-10-22T04:03:28.780Z,99736.97
2022-10-22T04:04:15.676Z,99748.22
2022-10-22T04:04:50.737Z,99745.72
2022-10-22T04:05:40.695Z,99747.97
2022-10-22T04:06:19.774Z,99752.22
2022-10-22T04:07:06.705Z,99753.09
2022-10-22T04:07:41.144Z,99733.50
2022-10-22T04:08:22.705Z,99752.59
2022-10-22T04:09:02.888Z,99756.72
2022-10-22T04:09:43.704Z,99751.63
2022-10-22T04:10:23.752Z,99743.81
2022-10-22T04:11:03.676Z,99758.13
2022-10-22T04:11:51.057Z,99756.94
2022-10-22T04:12:30.665Z,99745.50
2022-10-22T04:13:13.904Z,99758.75
2022-10-22T04:13:53.777Z,99760.97
2022-10-22T04:14:33.805Z,99755.88
2022-10-22T04:15:14.650Z,99738.56
2022-10-22T04:15:54.741Z,99733.13
2022-10-22T04:16:37.761Z,99754.69
2022-10-22T04:17:17.814Z,99747.34
2022-10-22T04:17:57.668Z,99751.44
2022-10-22T04:18:37.808Z,99742.31
2022-10-22T04:19:18.714Z,99739.53
2022-10-22T04:19:58.729Z,99732.09
2022-10-22T04:20:38.656Z,99719.13
2022-10-22T04:21:20.720Z,99744.72
2022-10-22T04:22:00.669Z,99742.25
2022-10-22T04:22:43.034Z,99744.97
2022-10-22T04:23:23.683Z,99723.31
2022-10-22T04:24:03.727Z,99729.00
2022-10-22T04:24:44.764Z,99743.50
2022-10-22T04:25:24.754Z,99752.75
2022-10-22T04:26:11.658Z,99729.84
2022-10-22T04:26:51.760Z,99743.22
2022-10-22T04:27:31.648Z,99756.47
2022-10-22T04:28:16.745Z,99738.56
2022-10-22T04:28:58.665Z,99740.25
2022-10-22T04:29:38.760Z,99757.50
2022-10-22T04:30:19.688Z,99746.72
2022-10-22T04:31:04.512Z,99753.38
2022-10-22T04:31:44.649Z,99747.59
2022-10-22T04:32:24.717Z,99751.97
2022-10-22T04:33:04.669Z,99743.81
2022-10-22T04:33:44.739Z,99743.25
2022-10-22T04:34:25.650Z,99743.81
2022-10-22T04:35:11.807Z,99741.72
2022-10-22T04:35:51.779Z,99742.78
2022-10-22T04:36:52.704Z,99743.50
2022-10-22T04:38:26.728Z,99732.75
2022-10-22T04:39:11.717Z,99741.38
2022-10-22T04:39:57.284Z,99746.72
2022-10-22T04:40:38.628Z,99720.69
2022-10-22T04:41:21.664Z,99755.31
2022-10-22T04:41:56.182Z,99729.19
2022-10-22T04:42:43.653Z,99732.56
2022-10-22T04:43:20.681Z,99740.63
2022-10-22T04:44:11.060Z,99744.81
2022-10-22T04:44:53.728Z,99738.00
2022-10-22T04:45:41.643Z,99743.63
2022-10-22T04:46:16.733Z,99749.91
2022-10-22T04:46:56.661Z,99742.28
2022-10-22T04:47:44.342Z,99747.91
2022-10-22T04:48:24.654Z,99740.09
2022-10-22T04:49:05.785Z,99747.69
2022-10-22T04:49:46.636Z,99748.28
2022-10-22T04:50:26.774Z,99745.72
2022-10-22T04:51:07.654Z,99741.50
2022-10-22T04:51:47.734Z,99742.72
2022-10-22T04:52:27.663Z,99734.28
2022-10-22T04:53:07.714Z,99728.56
2022-10-22T04:53:47.639Z,99738.38
2022-10-22T04:54:30.514Z,99740.41
2022-10-22T04:55:13.638Z,99736.53
2022-10-22T04:55:53.718Z,99736.59
2022-10-22T04:56:37.752Z,99727.56
2022-10-22T04:57:31.669Z,99745.88
2022-10-22T04:58:12.371Z,99733.03
2022-10-22T04:59:07.632Z,99747.97
2022-10-22T04:59:41.321Z,99753.72
2022-10-22T05:00:29.649Z,99742.16
2022-10-22T05:01:14.881Z,99734.75
2022-10-22T05:02:01.654Z,99731.66
2022-10-22T05:02:41.681Z,99740.84
2022-10-22T05:03:21.707Z,99740.16
2022-10-22T05:04:04.630Z,99731.16
2022-10-22T05:04:44.685Z,99727.09
2022-10-22T05:05:24.626Z,99728.94
2022-10-22T05:06:08.806Z,99741.88
2022-10-22T05:06:48.620Z,99743.41
2022-10-22T05:07:28.666Z,99747.91
2022-10-22T05:08:08.661Z,99730.44
2022-10-22T05:08:48.788Z,99735.69
2022-10-22T05:09:28.634Z,99730.94
2022-10-22T05:10:09.697Z,99733.34
2022-10-22T05:10:49.609Z,99732.72
2022-10-22T05:11:33.995Z,99738.69
2022-10-22T05:12:14.626Z,99726.97
2022-10-22T05:12:54.688Z,99721.56
2022-10-22T05:13:34.674Z,99727.69
2022-10-22T05:14:15.701Z,99743.72
2022-10-22T05:14:55.617Z,99742.94
2022-10-22T05:15:36.760Z,99750.38
2022-10-22T05:16:17.628Z,99763.84
2022-10-22T05:16:59.693Z,99752.31
2022-10-22T05:17:43.682Z,99749.59
2022-10-22T05:18:23.699Z,99760.44
2022-10-22T05:19:06.632Z,99752.16
2022-10-22T05:19:46.683Z,99761.50
2022-10-22T05:20:26.600Z,99758.81
2022-10-22T05:21:07.688Z,99755.41
2022-10-22T05:21:47.630Z,99763.53
2022-10-22T05:22:27.780Z,99763.94
2022-10-22T05:23:07.635Z,99767.16
2022-10-22T05:23:48.817Z,99783.03
2022-10-22T05:24:29.640Z,99772.75
2022-10-22T05:25:12.150Z,99776.28
2022-10-22T05:25:52.616Z,99784.19
2022-10-22T05:26:35.658Z,99783.88
2022-10-22T05:27:15.645Z,99758.47
2022-10-22T05:27:58.406Z,99786.75
2022-10-22T05:28:41.770Z,99789.44
2022-10-22T05:29:21.753Z,99784.47
2022-10-22T05:30:01.634Z,99784.66
2022-10-22T05:30:41.679Z,99804.28
2022-10-22T05:31:22.607Z,99789.13
2022-10-22T05:32:03.669Z,99807.31
2022-10-22T05:32:43.589Z,99800.25
2022-10-22T05:33:24.197Z,99776.34
2022-10-22T05:34:04.579Z,99802.19
2022-10-22T05:34:44.665Z,99779.78
2022-10-22T05:35:24.818Z,99794.28
2022-10-22T05:36:05.712Z,99796.00
2022-10-22T05:36:46.597Z,99802.53
2022-10-22T05:37:27.739Z,99789.28
2022-10-22T05:38:07.584Z,99799.03
2022-10-22T05:38:47.685Z,99798.56
2022-10-22T05:39:27.587Z,99798.56
2022-10-22T05:40:19.162Z,99798.25
2022-10-22T05:41:11.701Z,99794.69
2022-10-22T05:41:53.961Z,99793.06
2022-10-22T05:42:39.949Z,99789.91
2022-10-22T05:43:20.720Z,99792.09
2022-10-22T05:44:05.589Z,99775.84
2022-10-22T05:44:45.668Z,99787.06
2022-10-22T05:45:25.583Z,99781.94
2022-10-22T05:46:23.069Z,99773.03
2022-10-22T05:46:57.294Z,99783.34
2022-10-22T05:47:45.594Z,99779.22
2022-10-22T05:48:19.362Z,99770.56
2022-10-22T05:49:17.597Z,99775.50
2022-10-22T05:50:03.364Z,99764.78
2022-10-22T05:50:58.761Z,99770.94
2022-10-22T05:51:46.562Z,99782.63
2022-10-22T05:52:27.634Z,99764.63
2022-10-22T05:53:07.620Z,99771.50
2022-10-22T05:53:49.629Z,99771.72
2022-10-22T05:54:29.593Z,99774.72
2022-10-22T05:55:10.682Z,99741.78
2022-10-22T05:55:51.597Z,99771.03
2022-10-22T05:56:33.704Z,99771.41
2022-10-22T05:57:14.601Z,99768.34
2022-10-22T05:57:54.703Z,99768.00
2022-10-22T05:58:34.555Z,99774.59
2022-10-22T05:59:17.696Z,99766.06
2022-10-22T05:59:57.561Z,99776.19
2022-10-22T06:00:37.738Z,99777.44
2022-10-22T06:01:36.576Z,99771.03
2022-10-22T06:02:26.650Z,99773.34
2022-10-22T06:03:00.545Z,99766.25
2022-10-22T06:03:51.315Z,99780.91
2022-10-22T06:04:25.300Z,99777.91
2022-10-22T06:05:14.630Z,99783.84
2022-10-22T06:05:48.296Z,99771.38
2022-10-22T06:07:02.574Z,99776.66
2022-10-22T06:07:42.689Z,99789.47
2022-10-22T06:08:22.639Z,99801.44
2022-10-22T06:09:03.662Z,99792.19
2022-10-22T06:09:43.663Z,99799.09
2022-10-22T06:10:27.629Z,99804.22
2022-10-22T06:11:07.612Z,99798.19
2022-10-22T06:11:47.555Z,99800.72
2022-10-22T06:12:30.674Z,99810.81
2022-10-22T06:13:14.581Z,99792.53
2022-10-22T06:13:58.686Z,99800.81
2022-10-22T06:14:39.586Z,99800.50
2022-10-22T06:15:21.692Z,99798.03
2022-10-22T06:16:01.593Z,99799.88
2022-10-22T06:16:41.690Z,99789.13
2022-10-22T06:17:22.569Z,99800.72
2022-10-22T06:18:02.628Z,99798.56
2022-10-22T06:18:42.569Z,99803.16
2022-10-22T06:19:32.210Z,99807.72
2022-10-22T06:20:13.571Z,99803.88
2022-10-22T06:20:53.671Z,99815.59
2022-10-22T06:21:33.582Z,99808.31
2022-10-22T06:22:14.618Z,99822.94
2022-10-22T06:22:54.540Z,99803.41
2022-10-22T06:23:34.644Z,99820.47
2022-10-22T06:24:15.578Z,99809.78
2022-10-22T06:24:55.697Z,99828.75
2022-10-22T06:25:35.565Z,99823.94
2022-10-22T06:26:17.823Z,99824.47
2022-10-22T06:26:58.574Z,99830.19
2022-10-22T06:27:39.623Z,99826.00
2022-10-22T06:28:19.609Z,99834.50
2022-10-22T06:29:00.658Z,99844.88
2022-10-22T06:29:40.576Z,99837.06
2022-10-22T06:30:27.828Z,99841.31
2022-10-22T06:31:09.545Z,99833.34
2022-10-22T06:31:49.596Z,99832.94
2022-10-22T06:32:29.556Z,99836.75
2022-10-22T06:33:09.634Z,99838.16
2022-10-22T06:33:50.586Z,99849.03
2022-10-22T06:34:33.414Z,99840.19
2022-10-22T06:35:14.597Z,99839.84
2022-10-22T06:35:54.685Z,99829.06
2022-10-22T06:36:34.594Z,99832.19
2022-10-22T06:37:16.673Z,99845.50
2022-10-22T06:37:56.533Z,99846.38
2022-10-22T06:38:36.585Z,99842.97
2022-10-22T06:39:20.537Z,99835.22
2022-10-22T06:40:00.605Z,99838.13
2022-10-22T06:40:40.627Z,99840.09
2022-10-22T06:41:25.587Z,99840.94
2022-10-22T06:42:09.548Z,99839.50
2022-10-22T06:42:49.606Z,99835.53
2022-10-22T06:43:29.546Z,99833.38
2022-10-22T06:44:09.614Z,99836.69
2022-10-22T06:44:49.586Z,99832.97
2022-10-22T06:45:29.580Z,99839.88
2022-10-22T06:46:16.076Z,99850.59
2022-10-22T06:46:59.925Z,99844.84
2022-10-22T06:47:43.097Z,99846.31
2022-10-22T06:48:23.612Z,99843.84
2022-10-22T06:49:09.549Z,99845.81
2022-10-22T06:49:50.029Z,99848.25
2022-10-22T06:50:30.516Z,99832.94
2022-10-22T06:51:20.549Z,99852.38
2022-10-22T06:51:54.431Z,99841.69
2022-10-22T06:52:41.568Z,99853.59
2022-10-22T06:53:15.305Z,99828.66
2022-10-22T06:54:03.538Z,99850.44
2022-10-22T06:54:37.304Z,99844.84
2022-10-22T06:55:25.521Z,99845.41
2022-10-22T06:55:59.312Z,99839.44
2022-10-22T06:56:40.566Z,99848.00
2022-10-22T06:57:14.578Z,99849.03
2022-10-22T06:57:48.218Z,99839.44
2022-10-22T06:58:28.536Z,99841.00
2022-10-22T06:59:03.617Z,99843.94
2022-10-22T06:59:37.558Z,99844.00
2022-10-22T07:00:18.644Z,99854.00
2022-10-22T07:00:52.609Z,99852.47
2022-10-22T07:01:33.280Z,99826.06
2022-10-22T07:02:15.581Z,99823.75
2022-10-22T07:02:49.596Z,99837.69
2022-10-22T07:03:23.274Z,99843.31
2022-10-22T07:04:04.491Z,99846.72
2022-10-22T07:04:38.570Z,99846.28
2022-10-22T07:05:13.229Z,99841.00
2022-10-22T07:05:53.509Z,99847.69
2022-10-22T07:06:29.631Z,99851.06
2022-10-22T07:07:03.363Z,99834.13
2022-10-22T07:07:43.525Z,99840.91
2022-10-22T07:08:17.619Z,99846.03
2022-10-22T07:08:51.851Z,99862.59
2022-10-22T07:09:31.512Z,99853.22
2022-10-22T07:10:05.569Z,99843.47
2022-10-22T07:10:39.383Z,99855.09
2022-10-22T07:11:32.514Z,99834.75
2022-10-22T07:12:06.593Z,99826.91
2022-10-22T07:12:40.485Z,99853.78
2022-10-22T07:13:23.597Z,99845.31
2022-10-22T07:13:58.632Z,99837.75
2022-10-22T07:14:32.399Z,99848.03
2022-10-22T07:15:13.545Z,99837.19
2022-10-22T07:15:47.577Z,99845.03
2022-10-22T07:16:21.359Z,99835.50
2022-10-22T07:17:02.507Z,99837.97
2022-10-22T07:17:36.593Z,99849.16
2022-10-22T07:18:10.227Z,99848.53
2022-10-22T07:18:51.600Z,99854.94
2022-10-22T07:19:25.679Z,99832.66
2022-10-22T07:20:00.691Z,99848.28
2022-10-22T07:20:41.518Z,99830.78
2022-10-22T07:21:17.888Z,99856.56
2022-10-22T07:21:52.248Z,99859.44
2022-10-22T07:22:33.488Z,99864.00
2022-10-22T07:23:07.629Z,99865.00
2022-10-22T07:23:41.339Z,99861.13
2022-10-22T07:24:22.525Z,99866.09
2022-10-22T07:24:56.549Z,99854.16
2022-10-22T07:25:30.286Z,99870.25
2022-10-22T07:26:13.513Z,99861.69
2022-10-22T07:26:49.212Z,99858.19
2022-10-22T07:27:23.470Z,99863.53
2022-10-22T07:28:03.489Z,99860.50
2022-10-22T07:28:39.708Z,99857.50
2022-10-22T07:29:15.394Z,99863.94
2022-10-22T07:29:55.515Z,99866.25
2022-10-22T07:30:29.585Z,99864.06
2022-10-22T07:31:03.520Z,99860.72
2022-10-22T07:31:43.562Z,99854.78
2022-10-22T07:32:22.839Z,99861.97
2022-10-22T07:32:59.858Z,99857.03
2022-10-22T07:33:40.642Z,99840.75
2022-10-22T07:34:14.678Z,99861.59
2022-10-22T07:34:48.833Z,99867.41
2022-10-22T07:35:40.603Z,99845.59
2022-10-22T07:36:26.247Z,99841.69
2022-10-22T07:37:00.326Z,99844.97
2022-10-22T07:37:50.883Z,99841.53
2022-10-22T07:38:24.581Z,99865.91
2022-10-22T07:38:59.830Z,99860.28
2022-10-22T07:39:39.507Z,99871.91
2022-10-22T07:40:14.647Z,99867.16
2022-10-22T07:40:56.611Z,99859.66
2022-10-22T07:41:37.705Z,99873.91
2022-10-22T07:42:18.565Z,99858.88
2022-10-22T07:42:58.716Z,99884.75
2022-10-22T07:43:41.758Z,99881.09
2022-10-22T07:44:29.592Z,99863.22
2022-10-22T07:45:19.319Z,99862.53
2022-10-22T07:46:13.663Z,99856.09
2022-10-22T07:46:50.688Z,99873.34
2022-10-22T07:47:37.643Z,99860.91
2022-10-22T07:48:15.614Z,99883.66
2022-10-22T07:49:03.563Z,99875.63
2022-10-22T07:49:37.294Z,99865.84
2022-10-22T07:50:24.630Z,99865.53
2022-10-22T07:50:58.413Z,99866.19
2022-10-22T07:51:47.016Z,99882.34
2022-10-22T07:52:20.652Z,99882.75
2022-10-22T07:52:58.276Z,99850.06
2022-10-22T07:53:49.583Z,99880.41
2022-10-22T07:54:23.566Z,99877.78
2022-10-22T07:54:57.181Z,99873.34
2022-10-22T07:55:37.478Z,99877.13
2022-10-22T07:56:12.653Z,99868.03
2022-10-22T07:56:53.538Z,99865.91
2022-10-22T07:57:33.697Z,99868.28
2022-10-22T07:58:14.760Z,99861.50
2022-10-22T07:58:55.752Z,99841.41
2022-10-22T07:59:35.627Z,99844.78
2022-10-22T08:00:25.186Z,99850.66
2022-10-22T08:01:23.604Z,99868.88
2022-10-22T08:03:39.518Z,99841.63
2022-10-22T08:04:20.734Z,99858.59
2022-10-22T08:06:53.565Z,99871.91
2022-10-22T08:07:30.386Z,99867.94
2022-10-22T08:08:04.421Z,99874.31
2022-10-22T08:08:44.593Z,99849.44
2022-10-22T08:09:18.541Z,99878.16
2022-10-22T08:09:53.255Z,99865.84
2022-10-22T08:10:36.492Z,99864.78
2022-10-22T08:11:10.593Z,99856.81
2022-10-22T08:11:46.295Z,99865.00
2022-10-22T08:12:27.523Z,99857.03
2022-10-22T08:13:01.542Z,99843.94
2022-10-22T08:13:35.249Z,99858.09
2022-10-22T08:14:15.476Z,99855.69
2022-10-22T08:14:49.554Z,99849.56
2022-10-22T08:15:25.490Z,99845.84
2022-10-22T08:16:07.454Z,99845.53
2022-10-22T08:16:44.546Z,99853.38
2022-10-22T08:17:18.220Z,99858.25
2022-10-22T08:18:00.552Z,99862.50
2022-10-22T08:18:35.570Z,99856.94
2022-10-22T08:19:10.251Z,99861.16
2022-10-22T08:19:55.467Z,99861.72
2022-10-22T08:20:29.602Z,99860.22
2022-10-22T08:21:03.433Z,99849.03
2022-10-22T08:21:45.500Z,99837.31
2022-10-22T08:22:19.503Z,99840.69
2022-10-22T08:22:56.281Z,99838.00
2022-10-22T08:23:37.524Z,99845.09
2022-10-22T08:24:13.588Z,99843.97
2022-10-22T08:24:50.445Z,99846.88
2022-10-22T08:25:33.495Z,99841.44
2022-10-22T08:26:07.624Z,99858.41
2022-10-22T08:26:49.151Z,99857.59
2022-10-22T08:27:30.840Z,99851.00
2022-10-22T08:28:32.876Z,99852.47
2022-10-22T08:29:16.985Z,99861.84
2022-10-22T08:29:57.453Z,99838.09
2022-10-22T08:30:45.525Z,99862.69
2022-10-22T08:31:39.528Z,99853.84
2022-10-22T08:32:33.552Z,99850.16
2022-10-22T08:33:29.630Z,99840.97
2022-10-22T08:34:23.441Z,99849.53
2022-10-22T08:35:18.681Z,99842.78
2022-10-22T08:36:05.480Z,99847.22
2022-10-22T08:36:39.529Z,99843.16
2022-10-22T08:37:26.624Z,99837.38
2022-10-22T08:38:01.528Z,99847.41
2022-10-22T08:38:53.469Z,99848.91
2022-10-22T08:39:27.653Z,99854.13
2022-10-22T08:40:16.424Z,99855.84
2022-10-22T08:40:55.569Z,99869.56